Santa Rosa, CA (95409)

9:17 PM PDT on August 21, 2014 (GMT -0700)
Los Alamos Rd | Change Station
CLOSE
Current Station
Personal Weather Station
Location: Santa Rosa, CA
Elevation: 420 ft
Nearby Weather Stations

Elev 420 ft 38.46 °N, 122.63 °W | Updated 2 minutes ago

Clear
Clear
62.5 °F
Feels Like 62.5 °F
N
0.0
Wind Variable Wind from West
Gusts 1.0 mph

Today
High -- | Low -- °F
--% Chance of Precip.
Yesterday
High -- | Low -- °F
Precip. -- in
6:30 AM 7:56 PM
Waning Crescent, 10% visible
Pressure 29.88 in
Visibility 10.0 miles
Clouds Clear
Dew Point 57 °F
Humidity 81%
Rainfall 0.00 in
Snow Depth Not available.
UV 0 out of 12
Pollen 5.90 out of 12
Air Quality Not available.
Flu Activity Not available.
METAR KSTS 220353Z AUTO 15009KT 10SM CLR 17/13 A2990 RMK AO2 SLP119 T01670133

More Conditions Fewer Conditions

Pressure 29.88 in
Visibility 10.0 miles
Clouds Clear
Dew Point 57 °F
Humidity 81%
Rainfall 0.00 in
Snow Depth Not available.
UV 0 out of 12
Pollen 5.90 out of 12
Air Quality Not available.
Flu Activity Not available.
METAR KSTS 220353Z AUTO 15009KT 10SM CLR 17/13 A2990 RMK AO2 SLP119 T01670133

More Conditions Fewer Conditions

10-Day Weather Forecast

Almanac

Astronomy

Aug. 21, 2014 Rise Set
Actual Time 6:30 AM PDT 7:56 PM PDT
Civil Twilight 6:02 AM PDT 8:23 PM PDT
Nautical Twilight 5:29 AM PDT 8:57 PM PDT
Astronomical Twilight 4:53 AM PDT 9:32 PM PDT
Moon 3:06 AM PDT (8/21) 5:27 PM PDT (8/21)
Length of Visible Light 14h 21m
Length of Day
13h 25m
Tomorrow will be 2m 17s shorter.
Waning Crescent, 10% of the Moon is Illuminated
Aug 22
Waning Crescent
Aug 25
New
Sep 2
First Quarter
Sep 8
Full
Sep 15
Last Quarter

Today's Extremes

State Highs State Lows

Community

WunderPhotos

Upload Photos

1,746,128 photos uploaded!

Nearby

Air Quality

  Air Quality AQ Index Pollutant
Thursday Good
PM2.5
Friday Good
PM2.5
Saturday Good
PM2.5
Sunday Moderate
PM2.5
Monday Moderate
PM2.5
Tuesday Moderate
PM2.5

Snow Depth

Station Depth Elevation
CSS Lab 0 in 6900 ft
Echo Peak 1 in 7800 ft
Leavitt Lake 0 in 9400 ft
Monitor Pass 0 in 8350 ft
Leavitt Meadows 1 in 7200 ft

Earthquake Activity

City Distance Mag. Time & Date
Berkeley, California 45 miles 2.6 7:41 PM PDT
2014-08-16
Minimum magnitude displayed is 2.5.

Coastal Water Temperatures

Place Temperature
Point Reyes, CA 62.1 °F
Arena Cove, CA 60.1 °F
San Francisco, CA 64.0 °F
Richmond, CA 66.9 °F

Nearby Weather Stations